Terminal Aerodrome Forecast
Issued by NWS

Home | Current Version | Previous Version | Graphics & Text | Print | Product List | Glossary On
Versions: 1 2 3 4 5 6 7 8 9 10 11 12 13
000
FTUS41 KCLE 041129
TAFFDY
TAF
KFDY 041129Z 0412/0512 36003KT P6SM SKC
     FM041400 32005KT P6SM FEW045
     FM050100 VRB02KT P6SM SKC
      TEMPO 0509/0512 4SM BR=

USA.gov is the U.S. government's official web portal to all federal, state and local government web resources and services.